sensor_id;sensor_type;location;lat;lon;timestamp;P1;durP1;ratioP1;P2;durP2;ratioP2
3849;SDS011;1940;51.052;13.678;2023-03-15T00:01:35;8.13;;;1.60;;
3849;SDS011;1940;51.052;13.678;2023-03-15T00:04:00;7.30;;;1.50;;
3849;SDS011;1940;51.052;13.678;2023-03-15T00:06:26;3.70;;;1.60;;
3849;SDS011;1940;51.052;13.678;2023-03-15T00:08:51;3.33;;;1.27;;
3849;SDS011;1940;51.052;13.678;2023-03-15T00:11:17;8.60;;;1.57;;
3849;SDS011;1940;51.052;13.678;2023-03-15T00:13:44;8.63;;;1.50;;
3849;SDS011;1940;51.052;13.678;2023-03-15T00:16:10;9.70;;;1.90;;
3849;SDS011;1940;51.052;13.678;2023-03-15T00:18:42;2.67;;;1.30;;
3849;SDS011;1940;51.052;13.678;2023-03-15T00:21:09;9.47;;;3.03;;
3849;SDS011;1940;51.052;13.678;2023-03-15T00:23:34;11.23;;;1.40;;
3849;SDS011;1940;51.052;13.678;2023-03-15T00:26:00;3.27;;;1.40;;
3849;SDS011;1940;51.052;13.678;2023-03-15T00:28:25;6.27;;;1.70;;
3849;SDS011;1940;51.052;13.678;2023-03-15T00:31:01;3.30;;;1.50;;
3849;SDS011;1940;51.052;13.678;2023-03-15T00:33:27;4.17;;;1.50;;
3849;SDS011;1940;51.052;13.678;2023-03-15T00:35:53;5.63;;;1.60;;
3849;SDS011;1940;51.052;13.678;2023-03-15T00:38:18;3.00;;;1.30;;
3849;SDS011;1940;51.052;13.678;2023-03-15T00:40:45;17.87;;;3.30;;
3849;SDS011;1940;51.052;13.678;2023-03-15T00:43:11;4.40;;;1.60;;
3849;SDS011;1940;51.052;13.678;2023-03-15T00:45:41;6.40;;;1.80;;
3849;SDS011;1940;51.052;13.678;2023-03-15T00:48:09;3.93;;;1.53;;
3849;SDS011;1940;51.052;13.678;2023-03-15T00:50:34;8.20;;;1.43;;
3849;SDS011;1940;51.052;13.678;2023-03-15T00:53:00;4.30;;;1.50;;
3849;SDS011;1940;51.052;13.678;2023-03-15T00:55:26;6.30;;;2.00;;
3849;SDS011;1940;51.052;13.678;2023-03-15T00:57:51;11.90;;;1.60;;
3849;SDS011;1940;51.052;13.678;2023-03-15T01:00:20;8.73;;;2.10;;
3849;SDS011;1940;51.052;13.678;2023-03-15T01:02:48;3.40;;;1.70;;
3849;SDS011;1940;51.052;13.678;2023-03-15T01:05:15;6.37;;;1.87;;
3849;SDS011;1940;51.052;13.678;2023-03-15T01:07:40;1.73;;;1.27;;
3849;SDS011;1940;51.052;13.678;2023-03-15T01:10:09;7.50;;;1.80;;
3849;SDS011;1940;51.052;13.678;2023-03-15T01:12:35;4.63;;;1.20;;
3849;SDS011;1940;51.052;13.678;2023-03-15T01:15:02;4.77;;;1.40;;
3849;SDS011;1940;51.052;13.678;2023-03-15T01:17:29;3.17;;;1.30;;
3849;SDS011;1940;51.052;13.678;2023-03-15T01:19:54;2.80;;;1.20;;
3849;SDS011;1940;51.052;13.678;2023-03-15T01:22:20;3.63;;;1.57;;
3849;SDS011;1940;51.052;13.678;2023-03-15T01:24:45;6.33;;;1.20;;
3849;SDS011;1940;51.052;13.678;2023-03-15T01:27:11;6.67;;;1.33;;
3849;SDS011;1940;51.052;13.678;2023-03-15T01:29:37;3.97;;;1.40;;
3849;SDS011;1940;51.052;13.678;2023-03-15T01:32:02;7.70;;;1.43;;
3849;SDS011;1940;51.052;13.678;2023-03-15T01:34:28;4.93;;;1.43;;
3849;SDS011;1940;51.052;13.678;2023-03-15T01:36:53;6.87;;;1.47;;
3849;SDS011;1940;51.052;13.678;2023-03-15T01:39:19;5.13;;;1.50;;
3849;SDS011;1940;51.052;13.678;2023-03-15T01:41:45;2.30;;;1.27;;
3849;SDS011;1940;51.052;13.678;2023-03-15T01:44:14;6.70;;;1.33;;
3849;SDS011;1940;51.052;13.678;2023-03-15T01:46:41;3.47;;;1.43;;
3849;SDS011;1940;51.052;13.678;2023-03-15T01:49:08;11.67;;;1.97;;
3849;SDS011;1940;51.052;13.678;2023-03-15T01:51:42;3.87;;;1.33;;
3849;SDS011;1940;51.052;13.678;2023-03-15T01:54:30;2.33;;;1.17;;
3849;SDS011;1940;51.052;13.678;2023-03-15T01:57:02;8.60;;;1.53;;
3849;SDS011;1940;51.052;13.678;2023-03-15T01:59:34;7.03;;;1.87;;
3849;SDS011;1940;51.052;13.678;2023-03-15T02:02:04;10.93;;;2.30;;
3849;SDS011;1940;51.052;13.678;2023-03-15T02:04:33;4.40;;;1.87;;
3849;SDS011;1940;51.052;13.678;2023-03-15T02:07:02;9.23;;;1.50;;
3849;SDS011;1940;51.052;13.678;2023-03-15T02:09:51;2.97;;;1.33;;
3849;SDS011;1940;51.052;13.678;2023-03-15T02:12:18;7.40;;;1.43;;
3849;SDS011;1940;51.052;13.678;2023-03-15T02:14:44;14.40;;;1.90;;
3849;SDS011;1940;51.052;13.678;2023-03-15T02:17:10;5.03;;;1.70;;
3849;SDS011;1940;51.052;13.678;2023-03-15T02:22:53;4.47;;;1.90;;
3849;SDS011;1940;51.052;13.678;2023-03-15T02:28:30;6.90;;;1.60;;
3849;SDS011;1940;51.052;13.678;2023-03-15T02:30:56;9.47;;;2.37;;
3849;SDS011;1940;51.052;13.678;2023-03-15T02:33:26;4.50;;;1.30;;
3849;SDS011;1940;51.052;13.678;2023-03-15T02:35:54;5.97;;;1.77;;
3849;SDS011;1940;51.052;13.678;2023-03-15T02:38:32;2.20;;;1.10;;
3849;SDS011;1940;51.052;13.678;2023-03-15T02:40:57;4.17;;;1.70;;
3849;SDS011;1940;51.052;13.678;2023-03-15T02:43:24;1.90;;;1.13;;
3849;SDS011;1940;51.052;13.678;2023-03-15T02:45:53;1.40;;;1.20;;
3849;SDS011;1940;51.052;13.678;2023-03-15T02:48:20;5.73;;;1.67;;
3849;SDS011;1940;51.052;13.678;2023-03-15T02:50:45;6.20;;;2.00;;
3849;SDS011;1940;51.052;13.678;2023-03-15T02:53:11;3.40;;;1.80;;
3849;SDS011;1940;51.052;13.678;2023-03-15T02:55:36;4.37;;;1.50;;
3849;SDS011;1940;51.052;13.678;2023-03-15T02:58:02;7.13;;;2.37;;
3849;SDS011;1940;51.052;13.678;2023-03-15T03:00:28;9.07;;;1.70;;
3849;SDS011;1940;51.052;13.678;2023-03-15T03:02:53;3.70;;;1.40;;
3849;SDS011;1940;51.052;13.678;2023-03-15T03:05:19;5.77;;;1.70;;
3849;SDS011;1940;51.052;13.678;2023-03-15T03:07:45;2.67;;;1.30;;
3849;SDS011;1940;51.052;13.678;2023-03-15T03:10:11;5.57;;;1.67;;
3849;SDS011;1940;51.052;13.678;2023-03-15T03:12:39;4.40;;;1.70;;
3849;SDS011;1940;51.052;13.678;2023-03-15T03:15:04;6.87;;;1.40;;
3849;SDS011;1940;51.052;13.678;2023-03-15T03:17:31;4.00;;;1.53;;
3849;SDS011;1940;51.052;13.678;2023-03-15T03:20:01;4.30;;;1.63;;
3849;SDS011;1940;51.052;13.678;2023-03-15T03:22:37;10.60;;;1.30;;
3849;SDS011;1940;51.052;13.678;2023-03-15T03:25:04;2.30;;;1.57;;
3849;SDS011;1940;51.052;13.678;2023-03-15T03:27:31;14.83;;;1.43;;
3849;SDS011;1940;51.052;13.678;2023-03-15T03:30:00;4.73;;;1.30;;
3849;SDS011;1940;51.052;13.678;2023-03-15T03:32:27;6.20;;;1.80;;
3849;SDS011;1940;51.052;13.678;2023-03-15T03:34:53;6.10;;;1.90;;
3849;SDS011;1940;51.052;13.678;2023-03-15T03:37:19;6.93;;;1.73;;
3849;SDS011;1940;51.052;13.678;2023-03-15T03:39:45;2.40;;;1.17;;
3849;SDS011;1940;51.052;13.678;2023-03-15T03:42:11;5.13;;;1.57;;
3849;SDS011;1940;51.052;13.678;2023-03-15T03:44:36;1.77;;;1.43;;
3849;SDS011;1940;51.052;13.678;2023-03-15T03:47:02;4.40;;;1.20;;
3849;SDS011;1940;51.052;13.678;2023-03-15T03:49:28;8.73;;;1.60;;
3849;SDS011;1940;51.052;13.678;2023-03-15T03:51:53;5.03;;;1.87;;
3849;SDS011;1940;51.052;13.678;2023-03-15T03:54:19;5.07;;;1.57;;
3849;SDS011;1940;51.052;13.678;2023-03-15T03:56:45;4.37;;;1.70;;
3849;SDS011;1940;51.052;13.678;2023-03-15T03:59:11;4.23;;;1.40;;
3849;SDS011;1940;51.052;13.678;2023-03-15T04:01:36;6.00;;;1.80;;
3849;SDS011;1940;51.052;13.678;2023-03-15T04:04:02;3.03;;;1.30;;
3849;SDS011;1940;51.052;13.678;2023-03-15T04:06:27;9.23;;;1.50;;
3849;SDS011;1940;51.052;13.678;2023-03-15T04:08:53;3.23;;;1.30;;
3849;SDS011;1940;51.052;13.678;2023-03-15T04:11:18;3.40;;;1.60;;
3849;SDS011;1940;51.052;13.678;2023-03-15T04:13:44;4.93;;;1.50;;
3849;SDS011;1940;51.052;13.678;2023-03-15T04:16:09;3.27;;;1.50;;
3849;SDS011;1940;51.052;13.678;2023-03-15T04:18:35;11.57;;;1.80;;
3849;SDS011;1940;51.052;13.678;2023-03-15T04:21:00;3.47;;;1.73;;
3849;SDS011;1940;51.052;13.678;2023-03-15T04:23:26;5.17;;;1.63;;
3849;SDS011;1940;51.052;13.678;2023-03-15T04:25:52;2.73;;;1.30;;
3849;SDS011;1940;51.052;13.678;2023-03-15T04:28:21;8.10;;;1.73;;
3849;SDS011;1940;51.052;13.678;2023-03-15T04:30:47;8.07;;;1.70;;
3849;SDS011;1940;51.052;13.678;2023-03-15T04:33:14;5.17;;;1.27;;
3849;SDS011;1940;51.052;13.678;2023-03-15T04:35:39;3.00;;;1.37;;
3849;SDS011;1940;51.052;13.678;2023-03-15T04:38:06;5.57;;;1.50;;
3849;SDS011;1940;51.052;13.678;2023-03-15T04:40:32;4.43;;;1.40;;
3849;SDS011;1940;51.052;13.678;2023-03-15T04:43:02;7.03;;;2.00;;
3849;SDS011;1940;51.052;13.678;2023-03-15T04:45:29;1.27;;;1.17;;
3849;SDS011;1940;51.052;13.678;2023-03-15T04:47:55;1.70;;;1.50;;
3849;SDS011;1940;51.052;13.678;2023-03-15T04:50:22;8.10;;;1.63;;
3849;SDS011;1940;51.052;13.678;2023-03-15T04:52:48;6.17;;;1.47;;
3849;SDS011;1940;51.052;13.678;2023-03-15T04:55:13;4.93;;;1.53;;
3849;SDS011;1940;51.052;13.678;2023-03-15T04:57:39;6.63;;;1.10;;
3849;SDS011;1940;51.052;13.678;2023-03-15T05:00:05;6.50;;;1.40;;
3849;SDS011;1940;51.052;13.678;2023-03-15T05:02:33;6.80;;;1.40;;
3849;SDS011;1940;51.052;13.678;2023-03-15T05:04:59;2.37;;;1.43;;
3849;SDS011;1940;51.052;13.678;2023-03-15T05:07:25;2.80;;;1.30;;
3849;SDS011;1940;51.052;13.678;2023-03-15T05:09:51;4.73;;;1.30;;
3849;SDS011;1940;51.052;13.678;2023-03-15T05:12:16;7.57;;;1.70;;
3849;SDS011;1940;51.052;13.678;2023-03-15T05:14:42;3.17;;;1.27;;
3849;SDS011;1940;51.052;13.678;2023-03-15T05:17:08;7.00;;;1.70;;
3849;SDS011;1940;51.052;13.678;2023-03-15T05:19:34;8.10;;;1.90;;
3849;SDS011;1940;51.052;13.678;2023-03-15T05:22:00;5.30;;;1.40;;
3849;SDS011;1940;51.052;13.678;2023-03-15T05:24:26;2.17;;;1.50;;
3849;SDS011;1940;51.052;13.678;2023-03-15T05:26:51;6.13;;;1.43;;
3849;SDS011;1940;51.052;13.678;2023-03-15T05:29:18;6.23;;;1.63;;
3849;SDS011;1940;51.052;13.678;2023-03-15T05:31:45;3.60;;;1.73;;
3849;SDS011;1940;51.052;13.678;2023-03-15T05:34:11;6.13;;;1.77;;
3849;SDS011;1940;51.052;13.678;2023-03-15T05:36:36;11.53;;;2.23;;
3849;SDS011;1940;51.052;13.678;2023-03-15T05:39:02;30.77;;;3.40;;
3849;SDS011;1940;51.052;13.678;2023-03-15T05:41:28;14.70;;;3.53;;
3849;SDS011;1940;51.052;13.678;2023-03-15T05:43:53;5.80;;;2.20;;
3849;SDS011;1940;51.052;13.678;2023-03-15T05:46:19;4.63;;;3.10;;
3849;SDS011;1940;51.052;13.678;2023-03-15T05:48:46;8.23;;;2.80;;
3849;SDS011;1940;51.052;13.678;2023-03-15T05:51:12;9.07;;;3.10;;
3849;SDS011;1940;51.052;13.678;2023-03-15T05:53:38;8.97;;;2.07;;
3849;SDS011;1940;51.052;13.678;2023-03-15T05:56:03;9.30;;;2.63;;
3849;SDS011;1940;51.052;13.678;2023-03-15T05:58:29;4.27;;;1.63;;
3849;SDS011;1940;51.052;13.678;2023-03-15T06:00:55;3.93;;;1.70;;
3849;SDS011;1940;51.052;13.678;2023-03-15T06:03:20;4.13;;;2.10;;
3849;SDS011;1940;51.052;13.678;2023-03-15T06:05:46;12.80;;;2.43;;
3849;SDS011;1940;51.052;13.678;2023-03-15T06:08:11;6.10;;;1.57;;
3849;SDS011;1940;51.052;13.678;2023-03-15T06:10:37;4.60;;;2.27;;
3849;SDS011;1940;51.052;13.678;2023-03-15T06:13:02;4.80;;;1.67;;
3849;SDS011;1940;51.052;13.678;2023-03-15T06:15:28;6.20;;;1.70;;
3849;SDS011;1940;51.052;13.678;2023-03-15T06:17:53;4.53;;;1.73;;
3849;SDS011;1940;51.052;13.678;2023-03-15T06:20:19;6.20;;;1.70;;
3849;SDS011;1940;51.052;13.678;2023-03-15T06:22:44;6.90;;;2.00;;
3849;SDS011;1940;51.052;13.678;2023-03-15T06:25:10;5.03;;;1.60;;
3849;SDS011;1940;51.052;13.678;2023-03-15T06:27:36;2.80;;;1.70;;
3849;SDS011;1940;51.052;13.678;2023-03-15T06:30:02;3.03;;;1.40;;
3849;SDS011;1940;51.052;13.678;2023-03-15T06:32:28;6.30;;;1.97;;
3849;SDS011;1940;51.052;13.678;2023-03-15T06:34:54;11.20;;;2.47;;
3849;SDS011;1940;51.052;13.678;2023-03-15T06:37:19;6.00;;;2.43;;
3849;SDS011;1940;51.052;13.678;2023-03-15T06:39:45;11.17;;;2.97;;
3849;SDS011;1940;51.052;13.678;2023-03-15T06:42:11;8.20;;;2.37;;
3849;SDS011;1940;51.052;13.678;2023-03-15T06:44:38;5.47;;;2.60;;
3849;SDS011;1940;51.052;13.678;2023-03-15T06:47:04;3.47;;;2.30;;
3849;SDS011;1940;51.052;13.678;2023-03-15T06:49:30;11.23;;;3.13;;
3849;SDS011;1940;51.052;13.678;2023-03-15T06:51:56;8.30;;;3.77;;
3849;SDS011;1940;51.052;13.678;2023-03-15T06:54:22;8.20;;;4.30;;
3849;SDS011;1940;51.052;13.678;2023-03-15T06:56:48;9.20;;;3.77;;
3849;SDS011;1940;51.052;13.678;2023-03-15T06:59:14;9.90;;;4.13;;
3849;SDS011;1940;51.052;13.678;2023-03-15T07:01:39;18.70;;;6.63;;
3849;SDS011;1940;51.052;13.678;2023-03-15T07:04:05;4.83;;;2.57;;
3849;SDS011;1940;51.052;13.678;2023-03-15T07:06:31;7.23;;;3.60;;
3849;SDS011;1940;51.052;13.678;2023-03-15T07:08:57;12.37;;;4.07;;
3849;SDS011;1940;51.052;13.678;2023-03-15T07:11:22;11.70;;;4.20;;
3849;SDS011;1940;51.052;13.678;2023-03-15T07:13:48;8.93;;;3.90;;
3849;SDS011;1940;51.052;13.678;2023-03-15T07:16:13;12.53;;;4.80;;
3849;SDS011;1940;51.052;13.678;2023-03-15T07:18:39;9.33;;;2.80;;
3849;SDS011;1940;51.052;13.678;2023-03-15T07:21:04;8.87;;;3.60;;
3849;SDS011;1940;51.052;13.678;2023-03-15T07:23:32;11.70;;;2.10;;
3849;SDS011;1940;51.052;13.678;2023-03-15T07:25:57;10.50;;;1.80;;
3849;SDS011;1940;51.052;13.678;2023-03-15T07:28:23;9.50;;;3.60;;
3849;SDS011;1940;51.052;13.678;2023-03-15T07:30:53;9.90;;;1.93;;
3849;SDS011;1940;51.052;13.678;2023-03-15T07:33:27;4.60;;;1.70;;
3849;SDS011;1940;51.052;13.678;2023-03-15T07:35:54;8.37;;;3.00;;
3849;SDS011;1940;51.052;13.678;2023-03-15T07:38:20;14.50;;;3.37;;
3849;SDS011;1940;51.052;13.678;2023-03-15T07:40:50;7.90;;;2.40;;
3849;SDS011;1940;51.052;13.678;2023-03-15T07:43:16;6.57;;;3.37;;
3849;SDS011;1940;51.052;13.678;2023-03-15T07:45:42;9.90;;;3.17;;
3849;SDS011;1940;51.052;13.678;2023-03-15T07:48:08;4.70;;;1.60;;
3849;SDS011;1940;51.052;13.678;2023-03-15T07:50:33;7.40;;;1.90;;
3849;SDS011;1940;51.052;13.678;2023-03-15T07:52:59;3.00;;;1.50;;
3849;SDS011;1940;51.052;13.678;2023-03-15T07:55:25;9.13;;;1.90;;
3849;SDS011;1940;51.052;13.678;2023-03-15T07:57:50;12.30;;;1.50;;
3849;SDS011;1940;51.052;13.678;2023-03-15T08:00:16;6.37;;;1.93;;
3849;SDS011;1940;51.052;13.678;2023-03-15T08:02:42;4.20;;;1.73;;
3849;SDS011;1940;51.052;13.678;2023-03-15T08:05:08;8.73;;;2.73;;
3849;SDS011;1940;51.052;13.678;2023-03-15T08:07:34;5.70;;;1.70;;
3849;SDS011;1940;51.052;13.678;2023-03-15T08:10:01;4.90;;;1.43;;
3849;SDS011;1940;51.052;13.678;2023-03-15T08:12:27;3.13;;;1.53;;
3849;SDS011;1940;51.052;13.678;2023-03-15T08:14:54;6.87;;;1.80;;
3849;SDS011;1940;51.052;13.678;2023-03-15T08:17:19;7.10;;;2.10;;
3849;SDS011;1940;51.052;13.678;2023-03-15T08:19:45;6.10;;;1.93;;
3849;SDS011;1940;51.052;13.678;2023-03-15T08:22:10;3.90;;;1.80;;
3849;SDS011;1940;51.052;13.678;2023-03-15T08:24:36;4.50;;;1.67;;
3849;SDS011;1940;51.052;13.678;2023-03-15T08:27:01;10.37;;;1.60;;
3849;SDS011;1940;51.052;13.678;2023-03-15T08:29:29;4.63;;;1.47;;
3849;SDS011;1940;51.052;13.678;2023-03-15T08:31:55;5.83;;;1.83;;
3849;SDS011;1940;51.052;13.678;2023-03-15T08:34:20;2.73;;;1.40;;
3849;SDS011;1940;51.052;13.678;2023-03-15T08:36:46;3.13;;;1.50;;
3849;SDS011;1940;51.052;13.678;2023-03-15T08:39:12;4.73;;;1.50;;
3849;SDS011;1940;51.052;13.678;2023-03-15T08:41:38;4.80;;;1.50;;
3849;SDS011;1940;51.052;13.678;2023-03-15T08:44:04;8.90;;;1.30;;
3849;SDS011;1940;51.052;13.678;2023-03-15T08:46:30;6.60;;;1.57;;
3849;SDS011;1940;51.052;13.678;2023-03-15T08:48:57;4.63;;;1.57;;
3849;SDS011;1940;51.052;13.678;2023-03-15T08:51:22;14.57;;;1.60;;
3849;SDS011;1940;51.052;13.678;2023-03-15T08:53:49;5.10;;;1.80;;
3849;SDS011;1940;51.052;13.678;2023-03-15T08:56:15;10.10;;;1.53;;
3849;SDS011;1940;51.052;13.678;2023-03-15T08:58:41;7.50;;;1.87;;
3849;SDS011;1940;51.052;13.678;2023-03-15T09:01:07;5.50;;;1.77;;
3849;SDS011;1940;51.052;13.678;2023-03-15T09:03:35;5.03;;;1.77;;
3849;SDS011;1940;51.052;13.678;2023-03-15T09:06:01;5.57;;;1.73;;
3849;SDS011;1940;51.052;13.678;2023-03-15T09:08:26;5.80;;;2.40;;
3849;SDS011;1940;51.052;13.678;2023-03-15T09:10:52;5.00;;;1.90;;
3849;SDS011;1940;51.052;13.678;2023-03-15T09:13:21;4.00;;;2.07;;
3849;SDS011;1940;51.052;13.678;2023-03-15T09:15:50;6.83;;;1.70;;
3849;SDS011;1940;51.052;13.678;2023-03-15T09:18:16;7.20;;;1.60;;
3849;SDS011;1940;51.052;13.678;2023-03-15T09:20:42;4.93;;;1.80;;
3849;SDS011;1940;51.052;13.678;2023-03-15T09:23:08;3.63;;;1.43;;
3849;SDS011;1940;51.052;13.678;2023-03-15T09:25:34;3.80;;;1.50;;
3849;SDS011;1940;51.052;13.678;2023-03-15T09:28:03;10.57;;;2.00;;
3849;SDS011;1940;51.052;13.678;2023-03-15T09:30:34;7.13;;;2.20;;
3849;SDS011;1940;51.052;13.678;2023-03-15T09:33:00;8.90;;;1.63;;
3849;SDS011;1940;51.052;13.678;2023-03-15T09:35:26;3.97;;;1.70;;
3849;SDS011;1940;51.052;13.678;2023-03-15T09:37:51;10.23;;;2.37;;
3849;SDS011;1940;51.052;13.678;2023-03-15T09:45:27;3.53;;;1.83;;
3849;SDS011;1940;51.052;13.678;2023-03-15T09:48:10;3.83;;;1.60;;
3849;SDS011;1940;51.052;13.678;2023-03-15T09:50:42;5.47;;;1.90;;
3849;SDS011;1940;51.052;13.678;2023-03-15T09:55:56;4.07;;;1.90;;
3849;SDS011;1940;51.052;13.678;2023-03-15T09:58:25;7.97;;;2.30;;
3849;SDS011;1940;51.052;13.678;2023-03-15T10:01:03;8.80;;;1.83;;
3849;SDS011;1940;51.052;13.678;2023-03-15T10:03:32;4.20;;;1.97;;
3849;SDS011;1940;51.052;13.678;2023-03-15T10:06:17;7.13;;;2.10;;
3849;SDS011;1940;51.052;13.678;2023-03-15T10:08:55;5.80;;;1.90;;
3849;SDS011;1940;51.052;13.678;2023-03-15T10:11:23;6.20;;;1.80;;
3849;SDS011;1940;51.052;13.678;2023-03-15T10:14:11;7.10;;;1.97;;
3849;SDS011;1940;51.052;13.678;2023-03-15T10:16:50;4.40;;;1.80;;
3849;SDS011;1940;51.052;13.678;2023-03-15T10:19:18;14.10;;;2.70;;
3849;SDS011;1940;51.052;13.678;2023-03-15T10:30:15;5.23;;;2.73;;
3849;SDS011;1940;51.052;13.678;2023-03-15T10:33:00;8.47;;;3.30;;
3849;SDS011;1940;51.052;13.678;2023-03-15T10:35:46;12.73;;;2.37;;
3849;SDS011;1940;51.052;13.678;2023-03-15T10:38:15;13.57;;;2.30;;
3849;SDS011;1940;51.052;13.678;2023-03-15T10:40:49;6.43;;;2.60;;
3849;SDS011;1940;51.052;13.678;2023-03-15T10:43:25;5.70;;;2.80;;
3849;SDS011;1940;51.052;13.678;2023-03-15T10:46:02;7.87;;;2.40;;
3849;SDS011;1940;51.052;13.678;2023-03-15T10:48:30;4.40;;;2.80;;
3849;SDS011;1940;51.052;13.678;2023-03-15T10:51:05;4.70;;;2.50;;
3849;SDS011;1940;51.052;13.678;2023-03-15T10:53:51;12.13;;;3.90;;
3849;SDS011;1940;51.052;13.678;2023-03-15T10:56:23;11.17;;;4.10;;
3849;SDS011;1940;51.052;13.678;2023-03-15T10:58:52;11.23;;;3.50;;
3849;SDS011;1940;51.052;13.678;2023-03-15T11:01:26;11.00;;;3.10;;
3849;SDS011;1940;51.052;13.678;2023-03-15T11:06:49;8.90;;;2.13;;
3849;SDS011;1940;51.052;13.678;2023-03-15T11:09:21;6.63;;;2.83;;
3849;SDS011;1940;51.052;13.678;2023-03-15T11:11:53;5.20;;;2.40;;
3849;SDS011;1940;51.052;13.678;2023-03-15T11:14:21;5.73;;;2.50;;
3849;SDS011;1940;51.052;13.678;2023-03-15T11:16:49;5.30;;;2.80;;
3849;SDS011;1940;51.052;13.678;2023-03-15T11:19:17;4.33;;;2.10;;
3849;SDS011;1940;51.052;13.678;2023-03-15T11:21:46;9.87;;;2.27;;
3849;SDS011;1940;51.052;13.678;2023-03-15T11:24:28;6.70;;;2.50;;
3849;SDS011;1940;51.052;13.678;2023-03-15T11:26:57;4.30;;;2.20;;
3849;SDS011;1940;51.052;13.678;2023-03-15T11:29:29;7.30;;;1.87;;
3849;SDS011;1940;51.052;13.678;2023-03-15T11:32:00;4.23;;;2.27;;
3849;SDS011;1940;51.052;13.678;2023-03-15T11:34:40;5.20;;;2.47;;
3849;SDS011;1940;51.052;13.678;2023-03-15T11:37:18;9.27;;;2.20;;
3849;SDS011;1940;51.052;13.678;2023-03-15T11:42:36;6.67;;;2.40;;
3849;SDS011;1940;51.052;13.678;2023-03-15T11:45:11;3.10;;;1.90;;
3849;SDS011;1940;51.052;13.678;2023-03-15T11:47:53;3.60;;;1.90;;
3849;SDS011;1940;51.052;13.678;2023-03-15T11:50:23;6.27;;;2.00;;
3849;SDS011;1940;51.052;13.678;2023-03-15T11:52:49;4.70;;;2.07;;
3849;SDS011;1940;51.052;13.678;2023-03-15T11:55:17;4.53;;;2.03;;
3849;SDS011;1940;51.052;13.678;2023-03-15T11:57:47;5.30;;;2.57;;
3849;SDS011;1940;51.052;13.678;2023-03-15T12:00:18;7.77;;;2.97;;
3849;SDS011;1940;51.052;13.678;2023-03-15T12:02:52;3.63;;;1.70;;
3849;SDS011;1940;51.052;13.678;2023-03-15T12:11:10;4.53;;;1.77;;
3849;SDS011;1940;51.052;13.678;2023-03-15T12:13:36;4.73;;;2.13;;
3849;SDS011;1940;51.052;13.678;2023-03-15T12:16:14;4.97;;;2.00;;
3849;SDS011;1940;51.052;13.678;2023-03-15T12:18:43;3.73;;;2.07;;
3849;SDS011;1940;51.052;13.678;2023-03-15T12:23:47;3.93;;;2.40;;
3849;SDS011;1940;51.052;13.678;2023-03-15T12:26:22;2.13;;;1.63;;
3849;SDS011;1940;51.052;13.678;2023-03-15T12:31:25;4.30;;;2.40;;
3849;SDS011;1940;51.052;13.678;2023-03-15T12:34:10;5.13;;;2.27;;
3849;SDS011;1940;51.052;13.678;2023-03-15T12:36:40;7.77;;;2.87;;
3849;SDS011;1940;51.052;13.678;2023-03-15T12:41:39;5.90;;;2.80;;
3849;SDS011;1940;51.052;13.678;2023-03-15T12:51:53;6.60;;;2.60;;
3849;SDS011;1940;51.052;13.678;2023-03-15T12:54:29;4.47;;;2.43;;
3849;SDS011;1940;51.052;13.678;2023-03-15T12:56:58;8.50;;;2.33;;
3849;SDS011;1940;51.052;13.678;2023-03-15T12:59:44;3.93;;;2.53;;
3849;SDS011;1940;51.052;13.678;2023-03-15T13:02:34;7.63;;;2.50;;
3849;SDS011;1940;51.052;13.678;2023-03-15T13:05:18;5.87;;;2.30;;
3849;SDS011;1940;51.052;13.678;2023-03-15T13:07:49;5.60;;;2.40;;
3849;SDS011;1940;51.052;13.678;2023-03-15T13:18:44;5.80;;;2.30;;
3849;SDS011;1940;51.052;13.678;2023-03-15T13:21:19;8.40;;;2.10;;
3849;SDS011;1940;51.052;13.678;2023-03-15T13:23:51;4.57;;;2.33;;
3849;SDS011;1940;51.052;13.678;2023-03-15T13:28:46;5.73;;;2.50;;
3849;SDS011;1940;51.052;13.678;2023-03-15T13:31:34;5.30;;;2.47;;
3849;SDS011;1940;51.052;13.678;2023-03-15T13:34:19;3.90;;;2.30;;
3849;SDS011;1940;51.052;13.678;2023-03-15T13:36:51;5.37;;;2.63;;
3849;SDS011;1940;51.052;13.678;2023-03-15T13:39:20;6.03;;;2.80;;
3849;SDS011;1940;51.052;13.678;2023-03-15T13:42:16;8.07;;;2.40;;
3849;SDS011;1940;51.052;13.678;2023-03-15T13:44:43;2.97;;;2.23;;
3849;SDS011;1940;51.052;13.678;2023-03-15T13:47:08;3.60;;;2.23;;
3849;SDS011;1940;51.052;13.678;2023-03-15T13:49:50;6.13;;;1.90;;
3849;SDS011;1940;51.052;13.678;2023-03-15T13:52:16;3.10;;;2.20;;
3849;SDS011;1940;51.052;13.678;2023-03-15T13:54:42;4.33;;;2.00;;
3849;SDS011;1940;51.052;13.678;2023-03-15T13:57:13;2.20;;;1.83;;
3849;SDS011;1940;51.052;13.678;2023-03-15T13:59:49;4.13;;;1.90;;
3849;SDS011;1940;51.052;13.678;2023-03-15T14:02:28;2.83;;;2.30;;
3849;SDS011;1940;51.052;13.678;2023-03-15T14:05:20;2.53;;;2.00;;
3849;SDS011;1940;51.052;13.678;2023-03-15T14:10:32;6.97;;;2.00;;
3849;SDS011;1940;51.052;13.678;2023-03-15T14:13:20;2.23;;;1.80;;
3849;SDS011;1940;51.052;13.678;2023-03-15T14:15:46;4.47;;;1.87;;
3849;SDS011;1940;51.052;13.678;2023-03-15T14:20:43;4.57;;;2.20;;
3849;SDS011;1940;51.052;13.678;2023-03-15T14:23:18;4.67;;;2.20;;
3849;SDS011;1940;51.052;13.678;2023-03-15T14:25:54;4.17;;;1.50;;
3849;SDS011;1940;51.052;13.678;2023-03-15T14:28:26;2.20;;;1.80;;
3849;SDS011;1940;51.052;13.678;2023-03-15T14:30:52;2.77;;;2.00;;
3849;SDS011;1940;51.052;13.678;2023-03-15T14:35:56;5.80;;;2.33;;
3849;SDS011;1940;51.052;13.678;2023-03-15T14:38:25;2.70;;;2.00;;
3849;SDS011;1940;51.052;13.678;2023-03-15T14:41:06;2.70;;;1.90;;
3849;SDS011;1940;51.052;13.678;2023-03-15T14:43:35;6.53;;;1.80;;
3849;SDS011;1940;51.052;13.678;2023-03-15T14:46:01;3.10;;;1.80;;
3849;SDS011;1940;51.052;13.678;2023-03-15T14:48:27;3.53;;;1.80;;
3849;SDS011;1940;51.052;13.678;2023-03-15T14:50:55;2.03;;;1.60;;
3849;SDS011;1940;51.052;13.678;2023-03-15T14:53:22;5.27;;;1.90;;
3849;SDS011;1940;51.052;13.678;2023-03-15T14:55:50;3.83;;;1.80;;
3849;SDS011;1940;51.052;13.678;2023-03-15T14:58:17;4.37;;;2.37;;
3849;SDS011;1940;51.052;13.678;2023-03-15T15:00:44;3.10;;;1.93;;
3849;SDS011;1940;51.052;13.678;2023-03-15T15:05:46;4.80;;;2.03;;
3849;SDS011;1940;51.052;13.678;2023-03-15T15:08:13;3.77;;;1.73;;
3849;SDS011;1940;51.052;13.678;2023-03-15T15:10:44;3.73;;;1.80;;
3849;SDS011;1940;51.052;13.678;2023-03-15T15:13:16;2.80;;;2.07;;
3849;SDS011;1940;51.052;13.678;2023-03-15T15:15:47;4.67;;;1.67;;
3849;SDS011;1940;51.052;13.678;2023-03-15T15:18:14;2.80;;;1.70;;
3849;SDS011;1940;51.052;13.678;2023-03-15T15:20:40;8.90;;;2.10;;
3849;SDS011;1940;51.052;13.678;2023-03-15T15:23:40;3.73;;;1.90;;
3849;SDS011;1940;51.052;13.678;2023-03-15T15:26:01;4.50;;;1.70;;
3849;SDS011;1940;51.052;13.678;2023-03-15T15:28:28;3.77;;;2.03;;
3849;SDS011;1940;51.052;13.678;2023-03-15T15:30:55;2.80;;;1.90;;
3849;SDS011;1940;51.052;13.678;2023-03-15T15:33:20;3.23;;;2.10;;
3849;SDS011;1940;51.052;13.678;2023-03-15T15:35:49;10.80;;;3.07;;
3849;SDS011;1940;51.052;13.678;2023-03-15T15:38:17;5.33;;;2.67;;
3849;SDS011;1940;51.052;13.678;2023-03-15T15:40:43;5.07;;;2.33;;
3849;SDS011;1940;51.052;13.678;2023-03-15T15:43:09;5.30;;;2.23;;
3849;SDS011;1940;51.052;13.678;2023-03-15T15:45:36;2.33;;;1.90;;
3849;SDS011;1940;51.052;13.678;2023-03-15T15:48:02;1.90;;;1.50;;
3849;SDS011;1940;51.052;13.678;2023-03-15T15:50:33;1.40;;;1.30;;
3849;SDS011;1940;51.052;13.678;2023-03-15T15:53:00;1.70;;;1.47;;
3849;SDS011;1940;51.052;13.678;2023-03-15T15:55:30;2.97;;;1.40;;
3849;SDS011;1940;51.052;13.678;2023-03-15T15:57:58;1.47;;;1.20;;
3849;SDS011;1940;51.052;13.678;2023-03-15T16:00:25;2.90;;;1.80;;
3849;SDS011;1940;51.052;13.678;2023-03-15T16:02:53;2.70;;;1.50;;
3849;SDS011;1940;51.052;13.678;2023-03-15T16:05:22;1.70;;;1.60;;
3849;SDS011;1940;51.052;13.678;2023-03-15T16:07:51;2.77;;;2.10;;
3849;SDS011;1940;51.052;13.678;2023-03-15T16:10:20;2.13;;;1.93;;
3849;SDS011;1940;51.052;13.678;2023-03-15T16:12:48;3.50;;;1.80;;
3849;SDS011;1940;51.052;13.678;2023-03-15T16:15:15;4.30;;;2.00;;
3849;SDS011;1940;51.052;13.678;2023-03-15T16:17:42;1.93;;;1.83;;
3849;SDS011;1940;51.052;13.678;2023-03-15T16:20:09;2.60;;;1.57;;